Time;durP1;ratioP1;P1;durP2;ratioP2;P2;SDS_P1;SDS_P2;PMS_P1;PMS_P2;Temp;Humidity;BMP_temperature;BMP_pressure;BME280_temperature;BME280_humidity;BME280_pressure;Samples;Min_cycle;Max_cycle;Signal;HPM_P1;HPM_P2
2022/03/09 00:01:38;;;;;;;8.65;4.63;;;;;;;;;;4886208;29;20131;-70
2022/03/09 00:04:04;;;;;;;8.80;4.97;;;;;;;;;;4874722;29;20482;-68
2022/03/09 00:06:30;;;;;;;12.82;5.03;;;;;;;;;;4886111;29;20119;-70
2022/03/09 00:08:55;;;;;;;10.68;5.20;;;;;;;;;;4885564;29;20281;-68
2022/03/09 00:11:21;;;;;;;10.38;5.55;;;;;;;;;;4886161;29;20139;-71
2022/03/09 00:13:47;;;;;;;8.27;5.32;;;;;;;;;;4885726;29;20062;-70
2022/03/09 00:16:13;;;;;;;6.90;4.47;;;;;;;;;;4885203;29;20047;-69
2022/03/09 00:18:40;;;;;;;6.55;4.93;;;;;;;;;;4884832;29;20188;-69
2022/03/09 00:21:07;;;;;;;13.18;4.80;;;;;;;;;;4885164;29;20037;-70
2022/03/09 00:23:32;;;;;;;9.45;5.55;;;;;;;;;;4885429;29;20446;-69
2022/03/09 00:25:58;;;;;;;15.52;5.15;;;;;;;;;;4884121;29;20132;-70
2022/03/09 00:28:23;;;;;;;11.38;5.38;;;;;;;;;;4885410;29;20037;-69
2022/03/09 00:30:48;;;;;;;6.97;5.00;;;;;;;;;;4884154;29;20056;-69
2022/03/09 00:33:14;;;;;;;9.32;5.30;;;;;;;;;;4885720;29;20135;-70
2022/03/09 00:35:39;;;;;;;12.57;5.25;;;;;;;;;;4887200;29;20490;-71
2022/03/09 00:38:06;;;;;;;7.40;4.80;;;;;;;;;;4888878;29;20036;-69
2022/03/09 00:40:32;;;;;;;9.10;4.75;;;;;;;;;;4889025;29;20087;-69
2022/03/09 00:42:57;;;;;;;8.55;5.25;;;;;;;;;;4889197;29;20474;-69
2022/03/09 00:45:23;;;;;;;8.02;5.00;;;;;;;;;;4888853;29;20096;-69
2022/03/09 00:47:48;;;;;;;7.32;4.90;;;;;;;;;;4888131;29;20036;-68
2022/03/09 00:50:13;;;;;;;6.60;4.82;;;;;;;;;;4888650;29;20394;-69
2022/03/09 00:52:39;;;;;;;6.70;4.28;;;;;;;;;;4888887;29;20111;-68
2022/03/09 00:55:06;;;;;;;6.70;4.57;;;;;;;;;;4888537;29;20139;-68
2022/03/09 00:57:32;;;;;;;10.23;4.90;;;;;;;;;;4887803;29;20040;-69
2022/03/09 00:59:58;;;;;;;10.05;5.47;;;;;;;;;;4888485;29;20036;-70
2022/03/09 01:02:23;;;;;;;8.70;5.25;;;;;;;;;;4888576;29;20430;-70
2022/03/09 01:04:49;;;;;;;10.73;5.03;;;;;;;;;;4888686;29;20040;-70
2022/03/09 01:07:14;;;;;;;9.45;5.10;;;;;;;;;;4888087;29;20044;-68
2022/03/09 01:09:39;;;;;;;10.98;5.05;;;;;;;;;;4887766;29;20051;-70
2022/03/09 01:12:06;;;;;;;7.25;4.47;;;;;;;;;;4888136;29;20107;-68
2022/03/09 01:14:31;;;;;;;7.72;4.57;;;;;;;;;;4888305;29;20052;-69
2022/03/09 01:16:56;;;;;;;8.73;5.28;;;;;;;;;;4888160;29;20048;-69
2022/03/09 01:19:22;;;;;;;8.43;5.20;;;;;;;;;;4887388;29;20522;-67
2022/03/09 01:21:47;;;;;;;9.27;6.32;;;;;;;;;;4888558;29;20047;-70
2022/03/09 01:24:13;;;;;;;11.15;6.57;;;;;;;;;;4888071;29;20110;-67
2022/03/09 01:26:38;;;;;;;11.65;5.88;;;;;;;;;;4888027;29;20032;-69
2022/03/09 01:29:04;;;;;;;7.75;5.32;;;;;;;;;;4887900;29;21041;-70
2022/03/09 01:31:29;;;;;;;12.80;5.32;;;;;;;;;;4887441;29;20060;-70
2022/03/09 01:33:55;;;;;;;11.65;5.38;;;;;;;;;;4887843;29;20205;-69
2022/03/09 01:36:20;;;;;;;9.75;5.22;;;;;;;;;;4887653;29;20044;-70
2022/03/09 01:38:46;;;;;;;8.85;5.43;;;;;;;;;;4887977;29;20090;-69
2022/03/09 01:41:11;;;;;;;8.57;5.20;;;;;;;;;;4887540;29;20084;-69
2022/03/09 01:43:38;;;;;;;8.02;5.20;;;;;;;;;;4887455;29;20115;-69
2022/03/09 01:46:03;;;;;;;9.10;5.55;;;;;;;;;;4886229;29;20059;-69
2022/03/09 01:48:29;;;;;;;10.95;5.05;;;;;;;;;;4887687;29;20406;-71
2022/03/09 01:50:54;;;;;;;9.00;5.70;;;;;;;;;;4887860;29;20132;-70
2022/03/09 01:53:20;;;;;;;12.07;6.60;;;;;;;;;;4886943;29;20040;-70
2022/03/09 01:55:45;;;;;;;12.07;6.53;;;;;;;;;;4887800;29;20130;-71
2022/03/09 01:58:11;;;;;;;9.30;5.53;;;;;;;;;;4887558;29;20044;-69
2022/03/09 02:00:36;;;;;;;11.63;6.32;;;;;;;;;;4887513;29;20071;-70
2022/03/09 02:03:02;;;;;;;16.38;6.30;;;;;;;;;;4886578;29;20521;-69
2022/03/09 02:05:27;;;;;;;10.02;5.18;;;;;;;;;;4887546;29;21192;-69
2022/03/09 02:10:38;;;;;;;7.13;5.10;;;;;;;;;;4886599;29;20135;-69
2022/03/09 02:13:04;;;;;;;12.90;6.07;;;;;;;;;;4886909;29;20095;-69
2022/03/09 02:15:30;;;;;;;7.18;4.95;;;;;;;;;;4886374;29;20079;-69
2022/03/09 02:17:55;;;;;;;9.95;5.50;;;;;;;;;;4887107;29;20041;-69
2022/03/09 02:20:21;;;;;;;9.15;5.10;;;;;;;;;;4887139;29;20063;-69
2022/03/09 02:22:46;;;;;;;11.90;4.72;;;;;;;;;;4886863;29;20138;-69
2022/03/09 02:25:14;;;;;;;9.68;5.65;;;;;;;;;;4886457;29;20045;-69
2022/03/09 02:27:41;;;;;;;12.00;5.72;;;;;;;;;;4886741;29;20048;-68
2022/03/09 02:30:09;;;;;;;9.23;5.95;;;;;;;;;;4886907;29;20150;-68
2022/03/09 02:32:42;;;;;;;9.93;5.43;;;;;;;;;;4886933;29;20055;-69
2022/03/09 02:35:10;;;;;;;9.90;5.15;;;;;;;;;;4886342;29;20041;-70
2022/03/09 02:37:36;;;;;;;11.65;5.53;;;;;;;;;;4886403;29;20032;-69
2022/03/09 02:40:01;;;;;;;11.65;5.53;;;;;;;;;;4886440;29;20406;-69
2022/03/09 02:42:27;;;;;;;7.95;5.13;;;;;;;;;;4886894;29;20036;-69
2022/03/09 02:44:52;;;;;;;10.63;5.32;;;;;;;;;;4886446;29;20036;-70
2022/03/09 02:47:18;;;;;;;8.57;4.85;;;;;;;;;;4884861;29;20120;-69
2022/03/09 02:49:44;;;;;;;10.13;5.22;;;;;;;;;;4886176;29;20048;-70
2022/03/09 02:52:09;;;;;;;9.02;5.95;;;;;;;;;;4886792;29;20458;-68
2022/03/09 02:54:34;;;;;;;9.85;5.78;;;;;;;;;;4886580;29;20041;-70
2022/03/09 02:57:00;;;;;;;9.25;5.70;;;;;;;;;;4886430;29;20036;-69
2022/03/09 02:59:25;;;;;;;12.23;4.95;;;;;;;;;;4885239;29;20652;-69
2022/03/09 03:01:51;;;;;;;7.50;5.50;;;;;;;;;;4886565;29;20073;-69
2022/03/09 03:04:16;;;;;;;11.25;6.20;;;;;;;;;;4886361;29;20044;-68
2022/03/09 03:06:42;;;;;;;5.80;3.92;;;;;;;;;;4886375;29;20047;-69
2022/03/09 03:09:07;;;;;;;8.65;5.38;;;;;;;;;;4885705;29;20040;-69
2022/03/09 03:11:33;;;;;;;11.00;5.32;;;;;;;;;;4885214;29;20041;-69
2022/03/09 03:13:58;;;;;;;9.48;5.32;;;;;;;;;;4885601;29;20045;-70
2022/03/09 03:16:23;;;;;;;9.50;5.68;;;;;;;;;;4884572;29;20040;-70
2022/03/09 03:18:49;;;;;;;13.75;6.22;;;;;;;;;;4884952;29;20055;-70
2022/03/09 03:21:14;;;;;;;12.63;6.38;;;;;;;;;;4884070;29;20052;-69
2022/03/09 03:23:40;;;;;;;10.73;6.25;;;;;;;;;;4885653;29;20036;-69
2022/03/09 03:26:06;;;;;;;9.57;5.70;;;;;;;;;;4886227;29;20524;-69
2022/03/09 03:28:32;;;;;;;8.82;5.80;;;;;;;;;;4886516;29;20107;-70
2022/03/09 03:30:58;;;;;;;10.80;5.63;;;;;;;;;;4885997;29;20039;-70
2022/03/09 03:33:23;;;;;;;10.85;6.68;;;;;;;;;;4885676;29;20040;-69
2022/03/09 03:35:49;;;;;;;11.45;6.13;;;;;;;;;;4885871;29;20127;-68
2022/03/09 03:38:15;;;;;;;11.95;6.65;;;;;;;;;;4886223;29;20048;-69
2022/03/09 03:40:42;;;;;;;11.38;6.50;;;;;;;;;;4886189;29;20068;-68
2022/03/09 03:43:07;;;;;;;9.73;6.10;;;;;;;;;;4886293;29;21004;-68
2022/03/09 03:45:33;;;;;;;10.48;6.45;;;;;;;;;;4884953;29;20051;-69
2022/03/09 03:47:59;;;;;;;9.90;5.80;;;;;;;;;;4885855;29;20045;-69
2022/03/09 03:50:25;;;;;;;13.40;6.32;;;;;;;;;;4886220;29;20050;-70
2022/03/09 03:52:51;;;;;;;12.20;6.97;;;;;;;;;;4885915;29;20059;-69
2022/03/09 03:55:16;;;;;;;8.75;5.78;;;;;;;;;;4885740;29;20048;-69
2022/03/09 03:57:42;;;;;;;10.60;6.20;;;;;;;;;;4885635;29;20047;-70
2022/03/09 04:00:09;;;;;;;12.65;6.68;;;;;;;;;;4886217;29;20505;-68
2022/03/09 04:02:34;;;;;;;10.48;6.40;;;;;;;;;;4886073;29;20406;-69
2022/03/09 04:04:59;;;;;;;11.40;6.60;;;;;;;;;;4886107;29;20048;-68
2022/03/09 04:07:25;;;;;;;10.38;6.80;;;;;;;;;;4883855;29;20149;-68
2022/03/09 04:09:50;;;;;;;11.43;6.80;;;;;;;;;;4888133;29;20501;-69
2022/03/09 04:12:16;;;;;;;15.77;6.00;;;;;;;;;;4889409;29;20043;-69
2022/03/09 04:14:41;;;;;;;11.73;6.82;;;;;;;;;;4889726;29;20494;-68
2022/03/09 04:17:08;;;;;;;12.45;6.68;;;;;;;;;;4888726;29;20100;-68
2022/03/09 04:19:34;;;;;;;12.00;6.88;;;;;;;;;;4889411;29;20040;-69
2022/03/09 04:21:59;;;;;;;10.35;6.28;;;;;;;;;;4888777;29;20044;-70
2022/03/09 04:24:25;;;;;;;14.68;7.30;;;;;;;;;;4893457;29;20076;-70
2022/03/09 04:26:51;;;;;;;16.42;7.20;;;;;;;;;;4892826;29;20044;-70
2022/03/09 04:29:16;;;;;;;10.40;6.78;;;;;;;;;;4892993;29;20230;-68
2022/03/09 04:31:42;;;;;;;13.00;7.35;;;;;;;;;;4890044;29;20033;-69
2022/03/09 04:34:07;;;;;;;10.77;6.13;;;;;;;;;;4888828;29;20092;-68
2022/03/09 04:36:33;;;;;;;9.02;6.05;;;;;;;;;;4889375;29;20493;-68
2022/03/09 04:38:59;;;;;;;11.65;6.43;;;;;;;;;;4888460;29;20406;-69
2022/03/09 04:41:25;;;;;;;10.75;6.10;;;;;;;;;;4889172;29;20110;-69
2022/03/09 04:43:51;;;;;;;11.93;6.38;;;;;;;;;;4889151;29;20048;-69
2022/03/09 04:46:17;;;;;;;10.77;5.97;;;;;;;;;;4888804;29;20040;-69
2022/03/09 04:48:43;;;;;;;13.35;7.32;;;;;;;;;;4889132;29;20075;-70
2022/03/09 04:51:09;;;;;;;12.18;7.45;;;;;;;;;;4887807;29;20037;-70
2022/03/09 04:53:35;;;;;;;10.70;6.25;;;;;;;;;;4888992;29;20037;-70
2022/03/09 04:56:01;;;;;;;15.90;6.88;;;;;;;;;;4888247;29;20045;-70
2022/03/09 04:58:26;;;;;;;13.93;7.13;;;;;;;;;;4888931;29;20487;-70
2022/03/09 05:00:52;;;;;;;21.23;8.77;;;;;;;;;;4887972;29;20064;-70
2022/03/09 05:03:18;;;;;;;16.00;8.80;;;;;;;;;;4888511;29;20096;-69
2022/03/09 05:05:44;;;;;;;12.07;6.95;;;;;;;;;;4888569;29;20055;-69
2022/03/09 05:08:09;;;;;;;15.82;8.13;;;;;;;;;;4888426;29;20044;-70
2022/03/09 05:10:36;;;;;;;15.00;8.00;;;;;;;;;;4888450;29;20394;-69
2022/03/09 05:13:02;;;;;;;12.95;6.85;;;;;;;;;;4886646;29;20040;-68
2022/03/09 05:15:27;;;;;;;14.82;7.22;;;;;;;;;;4888165;29;20149;-68
2022/03/09 05:17:52;;;;;;;11.40;6.72;;;;;;;;;;4888050;29;20081;-70
2022/03/09 05:20:20;;;;;;;12.60;6.95;;;;;;;;;;4887964;29;20074;-68
2022/03/09 05:22:48;;;;;;;14.50;7.63;;;;;;;;;;4887646;29;20523;-67
2022/03/09 05:25:14;;;;;;;11.23;7.05;;;;;;;;;;4888323;29;20115;-69
2022/03/09 05:27:40;;;;;;;13.15;7.68;;;;;;;;;;4887502;29;20040;-69
2022/03/09 05:30:09;;;;;;;13.70;7.65;;;;;;;;;;4888057;29;20045;-69
2022/03/09 05:32:35;;;;;;;14.30;7.40;;;;;;;;;;4887758;29;20104;-68
2022/03/09 05:35:02;;;;;;;12.75;7.38;;;;;;;;;;4886843;29;20486;-68
2022/03/09 05:37:28;;;;;;;15.52;7.80;;;;;;;;;;4878536;29;20345;-69
2022/03/09 05:39:54;;;;;;;13.40;7.55;;;;;;;;;;4887941;29;20044;-69
2022/03/09 05:42:20;;;;;;;12.10;8.07;;;;;;;;;;4887956;29;20087;-69
2022/03/09 05:44:46;;;;;;;15.52;7.85;;;;;;;;;;4886721;29;20108;-68
2022/03/09 05:47:11;;;;;;;15.27;8.07;;;;;;;;;;4887033;29;20092;-67
2022/03/09 05:49:36;;;;;;;13.90;7.55;;;;;;;;;;4888126;29;20051;-69
2022/03/09 05:52:04;;;;;;;10.85;6.38;;;;;;;;;;4887215;29;20179;-69
2022/03/09 05:54:29;;;;;;;12.43;7.40;;;;;;;;;;4886861;29;20145;-68
2022/03/09 05:56:55;;;;;;;18.35;7.65;;;;;;;;;;4873501;29;20523;-69
2022/03/09 05:59:20;;;;;;;17.15;7.18;;;;;;;;;;4886320;29;20921;-67
2022/03/09 06:01:46;;;;;;;13.98;6.88;;;;;;;;;;4886597;29;20131;-68
2022/03/09 06:04:11;;;;;;;15.38;7.93;;;;;;;;;;4886846;29;20079;-70
2022/03/09 06:06:36;;;;;;;11.68;7.20;;;;;;;;;;4885308;29;20494;-66
2022/03/09 06:09:02;;;;;;;12.68;7.10;;;;;;;;;;4887468;29;20083;-68
2022/03/09 06:11:27;;;;;;;10.27;6.57;;;;;;;;;;4887729;29;20036;-67
2022/03/09 06:13:53;;;;;;;17.75;7.28;;;;;;;;;;4873585;29;20036;-67
2022/03/09 06:16:19;;;;;;;17.35;7.80;;;;;;;;;;4884454;29;20517;-67
2022/03/09 06:18:46;;;;;;;12.77;7.93;;;;;;;;;;4886752;29;20051;-68
2022/03/09 06:21:14;;;;;;;14.68;8.05;;;;;;;;;;4886497;29;20040;-68
2022/03/09 06:23:40;;;;;;;16.33;8.13;;;;;;;;;;4886026;29;20024;-68
2022/03/09 06:26:06;;;;;;;17.40;7.70;;;;;;;;;;4886531;29;20124;-69
2022/03/09 06:28:32;;;;;;;11.18;7.45;;;;;;;;;;4886456;29;20052;-68
2022/03/09 06:30:58;;;;;;;13.57;7.80;;;;;;;;;;4884738;29;20068;-69
2022/03/09 06:33:23;;;;;;;15.70;7.30;;;;;;;;;;4884906;29;20041;-69
2022/03/09 06:35:49;;;;;;;18.48;7.65;;;;;;;;;;4885623;29;20466;-67
2022/03/09 06:38:15;;;;;;;16.17;7.65;;;;;;;;;;4885191;29;20045;-68
2022/03/09 06:40:41;;;;;;;11.95;7.30;;;;;;;;;;4884990;29;20045;-69
2022/03/09 06:43:06;;;;;;;15.90;8.15;;;;;;;;;;4884947;29;20040;-68
2022/03/09 06:45:32;;;;;;;13.20;8.05;;;;;;;;;;4885713;29;20997;-68
2022/03/09 06:47:57;;;;;;;12.50;7.53;;;;;;;;;;4886551;29;20093;-68
2022/03/09 06:50:23;;;;;;;16.23;7.50;;;;;;;;;;4886292;29;20119;-68
2022/03/09 06:52:49;;;;;;;14.60;7.50;;;;;;;;;;4886754;29;20044;-69
2022/03/09 06:55:15;;;;;;;12.82;8.23;;;;;;;;;;4886556;29;20044;-69
2022/03/09 06:57:41;;;;;;;12.05;7.47;;;;;;;;;;4869544;29;20056;-71
2022/03/09 07:00:11;;;;;;;15.60;7.40;;;;;;;;;;4886532;29;20040;-70
2022/03/09 07:02:37;;;;;;;11.90;7.85;;;;;;;;;;4886574;29;20044;-69
2022/03/09 07:05:03;;;;;;;12.57;7.95;;;;;;;;;;4886851;29;20447;-67
2022/03/09 07:07:29;;;;;;;11.98;7.80;;;;;;;;;;4886315;29;20087;-67
2022/03/09 07:09:55;;;;;;;12.88;7.45;;;;;;;;;;4886726;29;20052;-70
2022/03/09 07:12:20;;;;;;;12.60;7.95;;;;;;;;;;4885381;29;20032;-69
2022/03/09 07:14:46;;;;;;;10.48;7.35;;;;;;;;;;4886386;29;20045;-69
2022/03/09 07:17:11;;;;;;;13.95;8.00;;;;;;;;;;4886227;29;20058;-69
2022/03/09 07:19:36;;;;;;;11.38;7.28;;;;;;;;;;4886700;29;20099;-68
2022/03/09 07:22:02;;;;;;;12.95;8.20;;;;;;;;;;4886283;29;20035;-69
2022/03/09 07:24:28;;;;;;;18.25;7.82;;;;;;;;;;4885782;29;21261;-69
2022/03/09 07:26:56;;;;;;;11.98;8.00;;;;;;;;;;4884471;29;20036;-69
2022/03/09 07:29:22;;;;;;;12.88;8.07;;;;;;;;;;4885409;29;20033;-69
2022/03/09 07:31:47;;;;;;;12.38;8.15;;;;;;;;;;4885956;29;20048;-69
2022/03/09 07:34:13;;;;;;;12.60;7.88;;;;;;;;;;4885269;29;20047;-69
2022/03/09 07:36:38;;;;;;;11.02;7.10;;;;;;;;;;4885662;29;20108;-67
2022/03/09 07:39:04;;;;;;;14.55;7.88;;;;;;;;;;4885504;29;20078;-69
2022/03/09 07:41:29;;;;;;;11.40;6.88;;;;;;;;;;4885510;29;20036;-68
2022/03/09 07:43:55;;;;;;;12.15;6.93;;;;;;;;;;4888260;29;20048;-68
2022/03/09 07:46:21;;;;;;;11.60;7.55;;;;;;;;;;4889012;29;20040;-67
2022/03/09 07:48:46;;;;;;;9.82;7.15;;;;;;;;;;4890035;29;20484;-69
2022/03/09 07:51:12;;;;;;;11.38;7.18;;;;;;;;;;4889748;29;20115;-67
2022/03/09 07:53:42;;;;;;;14.32;9.10;;;;;;;;;;4890149;29;20048;-70
2022/03/09 07:56:09;;;;;;;13.38;8.25;;;;;;;;;;4888821;29;20392;-71
2022/03/09 07:58:35;;;;;;;29.58;20.75;;;;;;;;;;4889712;29;20032;-69
2022/03/09 08:01:00;;;;;;;13.88;7.68;;;;;;;;;;4889567;29;20052;-69
2022/03/09 08:03:25;;;;;;;12.30;8.20;;;;;;;;;;4889285;29;20033;-70
2022/03/09 08:05:51;;;;;;;11.13;6.72;;;;;;;;;;4889895;29;20507;-69
2022/03/09 08:08:16;;;;;;;12.65;8.18;;;;;;;;;;4888536;29;20047;-69
2022/03/09 08:10:42;;;;;;;10.25;7.00;;;;;;;;;;4889496;29;20658;-69
2022/03/09 08:13:07;;;;;;;9.80;6.57;;;;;;;;;;4889389;29;20041;-68
2022/03/09 08:15:34;;;;;;;10.82;6.88;;;;;;;;;;4889230;29;20033;-68
2022/03/09 08:17:59;;;;;;;9.95;6.78;;;;;;;;;;4888730;29;20095;-67
2022/03/09 08:20:25;;;;;;;10.20;6.65;;;;;;;;;;4889214;29;20044;-69
2022/03/09 08:22:50;;;;;;;9.82;7.22;;;;;;;;;;4889601;29;20048;-67
2022/03/09 08:25:16;;;;;;;10.60;6.78;;;;;;;;;;4888785;29;20036;-66
2022/03/09 08:27:41;;;;;;;12.15;7.65;;;;;;;;;;4889076;29;20067;-67
2022/03/09 08:30:07;;;;;;;11.02;7.10;;;;;;;;;;4887970;29;20056;-66
2022/03/09 08:32:32;;;;;;;11.77;7.18;;;;;;;;;;4889215;29;20040;-69
2022/03/09 08:34:58;;;;;;;9.50;6.57;;;;;;;;;;4888515;29;20103;-69
2022/03/09 08:37:23;;;;;;;10.07;7.03;;;;;;;;;;4889361;29;20482;-68
2022/03/09 08:39:48;;;;;;;10.80;7.07;;;;;;;;;;4888433;29;20040;-69
2022/03/09 08:42:17;;;;;;;9.63;6.53;;;;;;;;;;4888888;29;20490;-66
2022/03/09 08:44:42;;;;;;;9.40;6.47;;;;;;;;;;4888843;29;20037;-69
2022/03/09 08:47:09;;;;;;;9.43;6.60;;;;;;;;;;4887911;29;20514;-66
2022/03/09 08:49:39;;;;;;;10.60;6.53;;;;;;;;;;4889388;29;20111;-66
2022/03/09 08:52:05;;;;;;;9.90;7.05;;;;;;;;;;4888082;29;20044;-69
2022/03/09 08:54:30;;;;;;;10.45;6.70;;;;;;;;;;4887656;29;20067;-68
2022/03/09 08:56:56;;;;;;;9.30;6.63;;;;;;;;;;4888049;29;20032;-68
2022/03/09 08:59:22;;;;;;;10.82;6.60;;;;;;;;;;4888573;29;20032;-67
2022/03/09 09:01:47;;;;;;;9.35;6.53;;;;;;;;;;4887771;29;20067;-67
2022/03/09 09:04:14;;;;;;;9.38;6.93;;;;;;;;;;4888542;29;20113;-67
2022/03/09 09:06:39;;;;;;;9.88;7.10;;;;;;;;;;4889215;29;20438;-68
2022/03/09 09:09:05;;;;;;;12.63;6.43;;;;;;;;;;4888612;29;20558;-66
2022/03/09 09:11:30;;;;;;;9.75;6.10;;;;;;;;;;4888596;29;20044;-68
2022/03/09 09:13:56;;;;;;;7.68;5.50;;;;;;;;;;4887903;29;20689;-67
2022/03/09 09:16:22;;;;;;;12.25;7.53;;;;;;;;;;4887573;29;20039;-67
2022/03/09 09:18:47;;;;;;;8.15;6.32;;;;;;;;;;4888483;29;20048;-69
2022/03/09 09:21:13;;;;;;;8.45;6.43;;;;;;;;;;4888267;29;20092;-67
2022/03/09 09:23:39;;;;;;;9.05;6.53;;;;;;;;;;4887722;29;20119;-68
2022/03/09 09:26:05;;;;;;;7.97;6.13;;;;;;;;;;4887809;29;20050;-67
2022/03/09 09:28:31;;;;;;;9.20;6.50;;;;;;;;;;4889153;29;20045;-68
2022/03/09 09:30:56;;;;;;;9.88;6.70;;;;;;;;;;4889133;29;20076;-68
2022/03/09 09:33:22;;;;;;;8.90;6.38;;;;;;;;;;4888310;29;20500;-69
2022/03/09 09:35:48;;;;;;;8.85;6.65;;;;;;;;;;4888191;29;20052;-68
2022/03/09 09:38:13;;;;;;;11.63;6.60;;;;;;;;;;4887558;29;20048;-68
2022/03/09 09:40:45;;;;;;;9.77;6.60;;;;;;;;;;4888086;29;20046;-69
2022/03/09 09:43:14;;;;;;;7.80;6.18;;;;;;;;;;4888384;29;20083;-67
2022/03/09 09:45:41;;;;;;;13.40;6.78;;;;;;;;;;4887414;29;20175;-69
2022/03/09 09:48:08;;;;;;;8.18;6.35;;;;;;;;;;4887611;29;20079;-69
2022/03/09 09:50:34;;;;;;;9.07;6.10;;;;;;;;;;4887693;29;20032;-67
2022/03/09 09:53:03;;;;;;;8.75;6.90;;;;;;;;;;4887829;29;20041;-69
2022/03/09 09:55:29;;;;;;;9.35;6.20;;;;;;;;;;4887847;29;20093;-68
2022/03/09 09:57:55;;;;;;;9.13;6.07;;;;;;;;;;4886678;29;20048;-69
2022/03/09 10:00:21;;;;;;;7.20;6.47;;;;;;;;;;4887640;29;20084;-69
2022/03/09 10:02:47;;;;;;;9.25;6.65;;;;;;;;;;4887965;29;20486;-68
2022/03/09 10:05:15;;;;;;;9.98;6.18;;;;;;;;;;4887158;29;20039;-68
2022/03/09 10:08:02;;;;;;;10.07;6.07;;;;;;;;;;4886022;29;20117;-69
2022/03/09 10:10:28;;;;;;;7.60;6.43;;;;;;;;;;4887367;29;20036;-67
2022/03/09 10:13:09;;;;;;;11.43;6.30;;;;;;;;;;4886498;29;20032;-67
2022/03/09 10:15:34;;;;;;;8.55;5.55;;;;;;;;;;4886582;29;20040;-67
2022/03/09 10:18:16;;;;;;;10.50;6.22;;;;;;;;;;4887343;29;20044;-70
2022/03/09 10:20:42;;;;;;;11.98;6.20;;;;;;;;;;4886803;29;20040;-67
2022/03/09 10:23:08;;;;;;;10.02;6.63;;;;;;;;;;4886878;29;20448;-68
2022/03/09 10:25:34;;;;;;;8.80;5.97;;;;;;;;;;4887524;29;20594;-68
2022/03/09 10:28:08;;;;;;;6.63;5.38;;;;;;;;;;5037882;28;20912;-71
2022/03/09 10:30:36;;;;;;;8.27;5.68;;;;;;;;;;5037320;28;20049;-70
2022/03/09 10:33:10;;;;;;;13.00;6.20;;;;;;;;;;5037496;28;20039;-69
2022/03/09 10:35:42;;;;;;;9.30;5.70;;;;;;;;;;5036869;28;20090;-70
2022/03/09 10:38:25;;;;;;;9.35;5.65;;;;;;;;;;5037436;28;20037;-69
2022/03/09 10:40:55;;;;;;;8.38;5.97;;;;;;;;;;5037752;28;20037;-69
2022/03/09 10:43:23;;;;;;;9.30;6.22;;;;;;;;;;5038001;28;20044;-70
2022/03/09 10:46:01;;;;;;;9.68;6.43;;;;;;;;;;5036883;28;20063;-70
2022/03/09 10:48:27;;;;;;;8.13;6.40;;;;;;;;;;5037185;28;20120;-70
2022/03/09 10:50:54;;;;;;;8.55;6.60;;;;;;;;;;5038415;28;20040;-70
2022/03/09 10:53:20;;;;;;;9.95;6.30;;;;;;;;;;5036973;28;20513;-69
2022/03/09 10:55:46;;;;;;;10.85;6.25;;;;;;;;;;5037875;28;20045;-69
2022/03/09 10:58:19;;;;;;;7.70;6.30;;;;;;;;;;5037896;28;20048;-69
2022/03/09 11:00:46;;;;;;;8.90;6.82;;;;;;;;;;5037772;28;20048;-69
2022/03/09 11:03:13;;;;;;;7.60;6.00;;;;;;;;;;5037189;28;20063;-69
2022/03/09 11:06:00;;;;;;;9.25;5.75;;;;;;;;;;5037514;28;20037;-69
2022/03/09 11:08:26;;;;;;;7.25;5.35;;;;;;;;;;5037484;28;20048;-68
2022/03/09 11:10:54;;;;;;;6.28;5.07;;;;;;;;;;5038034;28;20132;-69
2022/03/09 11:13:21;;;;;;;7.63;5.57;;;;;;;;;;5036617;28;20581;-68
2022/03/09 11:15:48;;;;;;;6.85;5.05;;;;;;;;;;5036338;28;20889;-68
2022/03/09 11:18:19;;;;;;;7.85;5.50;;;;;;;;;;5037176;28;20041;-69
2022/03/09 11:20:46;;;;;;;7.93;4.90;;;;;;;;;;5035540;28;20045;-69
2022/03/09 11:23:16;;;;;;;5.32;4.72;;;;;;;;;;5037237;28;20461;-69
2022/03/09 11:26:20;;;;;;;7.93;5.22;;;;;;;;;;5036385;28;20043;-70
2022/03/09 11:28:46;;;;;;;5.63;4.63;;;;;;;;;;4994962;28;20042;-69
2022/03/09 11:31:15;;;;;;;6.78;4.32;;;;;;;;;;5029643;28;20049;-70
2022/03/09 11:33:52;;;;;;;6.72;5.20;;;;;;;;;;5037604;28;20037;-70
2022/03/09 11:36:24;;;;;;;5.85;4.63;;;;;;;;;;5036325;28;20057;-69
2022/03/09 11:39:17;;;;;;;13.40;5.40;;;;;;;;;;5027816;28;20087;-68
2022/03/09 11:41:44;;;;;;;6.93;5.03;;;;;;;;;;5023961;28;20473;-69
2022/03/09 11:44:19;;;;;;;5.22;4.40;;;;;;;;;;5024006;28;20034;-69
2022/03/09 11:47:00;;;;;;;5.65;4.35;;;;;;;;;;5022028;28;20060;-69
2022/03/09 11:49:33;;;;;;;6.88;4.85;;;;;;;;;;5032299;28;20492;-69
2022/03/09 11:52:06;;;;;;;7.22;4.65;;;;;;;;;;5035208;28;20053;-68
2022/03/09 11:54:42;;;;;;;7.25;4.30;;;;;;;;;;5023900;28;20034;-70
2022/03/09 11:57:08;;;;;;;10.73;5.30;;;;;;;;;;5023256;28;20033;-69
2022/03/09 11:59:34;;;;;;;8.10;4.18;;;;;;;;;;5023646;28;20079;-69
2022/03/09 12:02:03;;;;;;;6.65;4.53;;;;;;;;;;5023357;28;20569;-67
2022/03/09 12:04:50;;;;;;;5.63;4.35;;;;;;;;;;5023360;28;20091;-69
2022/03/09 12:07:37;;;;;;;5.25;4.30;;;;;;;;;;5023286;28;20044;-69
2022/03/09 12:10:12;;;;;;;3.38;3.08;;;;;;;;;;5015493;28;20049;-68
2022/03/09 12:12:59;;;;;;;5.00;4.00;;;;;;;;;;5023389;28;20592;-69
2022/03/09 12:15:24;;;;;;;6.10;3.67;;;;;;;;;;5022589;28;20094;-68
2022/03/09 12:17:50;;;;;;;5.65;4.25;;;;;;;;;;5022804;28;20430;-69
2022/03/09 12:20:27;;;;;;;5.18;3.35;;;;;;;;;;5020627;28;20049;-69
2022/03/09 12:22:57;;;;;;;5.50;4.60;;;;;;;;;;5022832;28;20029;-69
2022/03/09 12:25:45;;;;;;;3.97;3.38;;;;;;;;;;5022922;28;20044;-68
2022/03/09 12:28:25;;;;;;;7.65;4.85;;;;;;;;;;5022646;28;20041;-69
2022/03/09 12:31:03;;;;;;;13.98;4.72;;;;;;;;;;5020946;28;20052;-69
2022/03/09 12:33:31;;;;;;;6.38;4.28;;;;;;;;;;5022563;28;20029;-69
2022/03/09 12:36:13;;;;;;;8.38;2.67;;;;;;;;;;5022519;28;20512;-70
2022/03/09 12:38:55;;;;;;;6.40;3.17;;;;;;;;;;5023104;28;20037;-70
2022/03/09 12:41:30;;;;;;;6.05;4.38;;;;;;;;;;5020940;28;20071;-69
2022/03/09 12:44:05;;;;;;;5.45;3.58;;;;;;;;;;5022155;28;20102;-69
2022/03/09 12:46:32;;;;;;;4.85;3.63;;;;;;;;;;5021337;28;20438;-69
2022/03/09 12:49:05;;;;;;;3.63;3.08;;;;;;;;;;5022790;28;20084;-69
2022/03/09 12:51:31;;;;;;;6.95;4.80;;;;;;;;;;5020147;28;20516;-68
2022/03/09 12:53:57;;;;;;;3.65;2.97;;;;;;;;;;5021791;28;20041;-70
2022/03/09 12:56:26;;;;;;;3.53;2.65;;;;;;;;;;5021977;28;20029;-69
2022/03/09 12:58:55;;;;;;;2.90;2.50;;;;;;;;;;5022099;28;20045;-70
2022/03/09 13:01:21;;;;;;;4.30;3.03;;;;;;;;;;5021953;28;20033;-69
2022/03/09 13:03:47;;;;;;;5.65;3.40;;;;;;;;;;5021611;28;20048;-68
2022/03/09 13:06:21;;;;;;;4.68;3.60;;;;;;;;;;5021655;28;20037;-68
2022/03/09 13:08:46;;;;;;;4.63;3.80;;;;;;;;;;5020374;28;20116;-69
2022/03/09 13:11:12;;;;;;;3.42;2.92;;;;;;;;;;5021901;28;20140;-69
2022/03/09 13:13:37;;;;;;;4.22;2.85;;;;;;;;;;5022023;28;20033;-70
2022/03/09 13:16:03;;;;;;;8.23;5.57;;;;;;;;;;5022049;28;20045;-69
2022/03/09 13:18:33;;;;;;;6.38;4.40;;;;;;;;;;5032981;28;20125;-69
2022/03/09 13:21:02;;;;;;;3.75;2.47;;;;;;;;;;5030276;28;20037;-69
2022/03/09 13:23:30;;;;;;;3.13;2.50;;;;;;;;;;5021293;28;20037;-70
2022/03/09 13:26:13;;;;;;;3.35;2.70;;;;;;;;;;5021160;28;20109;-71
2022/03/09 13:28:39;;;;;;;6.47;4.00;;;;;;;;;;5022187;28;20095;-71
2022/03/09 13:31:04;;;;;;;4.75;2.90;;;;;;;;;;5021754;28;20038;-70
2022/03/09 13:33:30;;;;;;;4.72;3.97;;;;;;;;;;5021862;28;20064;-71
2022/03/09 13:35:56;;;;;;;7.15;4.63;;;;;;;;;;5020449;28;20045;-71
2022/03/09 13:38:26;;;;;;;5.07;3.17;;;;;;;;;;5020726;28;20052;-70
2022/03/09 13:41:00;;;;;;;5.35;2.80;;;;;;;;;;5021105;28;20038;-69
2022/03/09 13:43:27;;;;;;;3.00;2.70;;;;;;;;;;5021470;28;20037;-68
2022/03/09 13:45:53;;;;;;;3.22;2.92;;;;;;;;;;5020908;28;20164;-70
2022/03/09 13:48:26;;;;;;;4.60;3.42;;;;;;;;;;5020558;28;20151;-69
2022/03/09 13:51:00;;;;;;;7.20;3.75;;;;;;;;;;5021705;28;20065;-69
2022/03/09 13:53:34;;;;;;;6.38;4.30;;;;;;;;;;5021482;28;20041;-69
2022/03/09 13:56:00;;;;;;;6.28;4.25;;;;;;;;;;5020181;28;20052;-69
2022/03/09 13:58:27;;;;;;;6.00;4.35;;;;;;;;;;5020007;28;20807;-69
2022/03/09 14:01:08;;;;;;;5.28;3.83;;;;;;;;;;5020857;28;20048;-68
2022/03/09 14:03:44;;;;;;;5.70;3.97;;;;;;;;;;5020926;28;20645;-69
2022/03/09 14:06:24;;;;;;;14.15;3.40;;;;;;;;;;5019416;28;20061;-69
2022/03/09 14:08:51;;;;;;;4.97;4.00;;;;;;;;;;5021079;28;20040;-69
2022/03/09 14:11:19;;;;;;;4.05;3.00;;;;;;;;;;5020137;28;20033;-69
2022/03/09 14:14:00;;;;;;;6.65;3.17;;;;;;;;;;5020761;28;20463;-70
2022/03/09 14:16:29;;;;;;;3.33;2.90;;;;;;;;;;5018416;28;20501;-69
2022/03/09 14:18:55;;;;;;;7.40;3.75;;;;;;;;;;5019240;28;20053;-70
2022/03/09 14:21:21;;;;;;;9.23;3.90;;;;;;;;;;5018184;28;20136;-70
2022/03/09 14:23:47;;;;;;;3.67;3.00;;;;;;;;;;5018962;28;20076;-70
2022/03/09 14:26:13;;;;;;;3.45;3.10;;;;;;;;;;5018977;28;20048;-69
2022/03/09 14:28:39;;;;;;;4.45;3.05;;;;;;;;;;5019566;28;20037;-69
2022/03/09 14:31:04;;;;;;;5.47;3.53;;;;;;;;;;5019597;28;20143;-70
2022/03/09 14:33:30;;;;;;;6.57;3.30;;;;;;;;;;5020786;28;20029;-69
2022/03/09 14:35:58;;;;;;;7.28;2.50;;;;;;;;;;5020936;28;20045;-69
2022/03/09 14:38:24;;;;;;;6.68;2.67;;;;;;;;;;5020629;28;20067;-69
2022/03/09 14:40:49;;;;;;;2.97;2.55;;;;;;;;;;5021224;28;20120;-70